Time;durP1;ratioP1;P1;durP2;ratioP2;P2;SDS_P1;SDS_P2;PMS_P1;PMS_P2;Temp;Humidity;BMP_temperature;BMP_pressure;BME280_temperature;BME280_humidity;BME280_pressure;Samples;Min_cycle;Max_cycle;Signal;HPM_P1;HPM_P2
2023/04/03 00:00:45;;;;;;;3.72;2.70;;;;;;;14.67;78.68;100776.31;5071525;28;20025;-86
2023/04/03 00:03:10;;;;;;;3.75;2.78;;;;;;;14.72;78.80;100789.59;5069419;28;20470;-86
2023/04/03 00:05:36;;;;;;;4.05;2.92;;;;;;;14.74;78.80;100795.81;5060823;28;20024;-86
2023/04/03 00:08:02;;;;;;;3.50;2.83;;;;;;;14.74;78.77;100795.81;5072340;28;20032;-86
2023/04/03 00:10:28;;;;;;;3.20;2.90;;;;;;;14.43;78.87;100742.06;5071040;28;20039;-86
2023/04/03 00:12:53;;;;;;;4.30;2.80;;;;;;;14.42;78.90;100735.91;5069243;28;20129;-86
2023/04/03 00:15:19;;;;;;;3.38;2.78;;;;;;;14.62;78.73;100770.84;5061284;28;20029;-88
2023/04/03 00:17:45;;;;;;;4.80;2.95;;;;;;;14.59;78.39;100767.22;5054537;28;20038;-88
2023/04/03 00:20:11;;;;;;;5.00;3.60;;;;;;;14.37;77.98;100726.97;5072262;28;20031;-88
2023/04/03 00:22:37;;;;;;;5.72;3.33;;;;;;;14.70;78.21;100780.78;5070726;28;20432;-88
2023/04/03 00:25:03;;;;;;;6.10;3.28;;;;;;;14.52;78.17;100757.28;5072441;28;20514;-88
2023/04/03 00:27:29;;;;;;;;;;;;;;;14.71;78.16;100786.09;5071036;28;21290;-88
2023/04/03 00:29:54;;;;;;;4.20;3.45;;;;;;;14.59;78.49;100767.22;5070076;28;20407;-88
2023/04/03 00:32:20;;;;;;;3.78;3.00;;;;;;;14.51;78.20;100752.88;5070489;28;20056;-87
2023/04/03 00:34:45;;;;;;;7.63;3.75;;;;;;;14.57;78.43;100758.38;5070892;28;20034;-88
2023/04/03 00:37:11;;;;;;;3.70;3.00;;;;;;;14.39;78.49;100720.06;5071601;28;20086;-87
2023/04/03 00:39:36;;;;;;;4.78;3.72;;;;;;;14.50;78.33;100745.81;5069828;28;20113;-87
2023/04/03 00:42:02;;;;;;;4.75;3.45;;;;;;;14.59;78.41;100756.72;5060844;28;20055;-87
2023/04/03 00:44:28;;;;;;;4.00;3.20;;;;;;;14.67;78.36;100778.94;5070626;28;20032;-88
2023/04/03 00:46:53;;;;;;;3.20;2.90;;;;;;;14.65;78.28;100781.50;5071728;28;20028;-87
2023/04/03 00:49:19;;;;;;;4.20;3.08;;;;;;;14.54;78.36;100756.50;5050734;28;20391;-87
2023/04/03 00:51:45;;;;;;;4.15;2.85;;;;;;;14.41;78.37;100730.59;5063418;28;20024;-87
2023/04/03 00:54:11;;;;;;;6.25;3.35;;;;;;;14.59;78.44;100756.72;5070522;28;20025;-87
2023/04/03 00:56:37;;;;;;;3.80;3.20;;;;;;;14.40;78.43;100720.94;5057114;28;20085;-87
2023/04/03 00:59:13;;;;;;;6.00;3.65;;;;;;;14.53;78.30;100749.44;5070518;28;20032;-88
2023/04/03 01:01:39;;;;;;;6.43;3.22;;;;;;;14.18;78.48;100685.06;5070555;28;20032;-89
2023/04/03 01:04:05;;;;;;;4.15;3.15;;;;;;;14.48;78.29;100740.50;5046547;28;20037;-89
2023/04/03 01:06:37;;;;;;;4.25;3.10;;;;;;;14.51;78.54;100750.25;5083162;28;20486;-90
2023/04/03 01:09:03;;;;;;;4.28;3.47;;;;;;;14.64;78.47;100777.06;5060414;28;20040;-88
2023/04/03 01:11:28;;;;;;;4.25;3.13;;;;;;;14.32;78.48;100715.38;5070360;28;20070;-87
2023/04/03 01:13:54;;;;;;;4.22;2.90;;;;;;;14.24;78.42;100706.31;5056689;28;20036;-88
2023/04/03 01:16:20;;;;;;;3.72;3.13;;;;;;;14.62;78.44;100772.59;5071569;28;20405;-88
2023/04/03 01:18:46;;;;;;;4.22;3.22;;;;;;;14.49;78.57;100752.81;5069457;28;20513;-88
2023/04/03 01:21:48;;;;;;;3.58;3.08;;;;;;;14.45;78.47;100743.00;5070124;28;20501;-88
2023/04/03 01:24:38;;;;;;;3.53;3.05;;;;;;;14.59;78.56;100769.84;5071706;28;20024;-87
2023/04/03 01:27:05;;;;;;;3.53;3.03;;;;;;;14.60;78.64;100775.16;5070719;28;20481;-87
2023/04/03 01:29:31;;;;;;;3.50;3.00;;;;;;;14.46;78.62;100757.97;5069388;28;20052;-88
2023/04/03 01:31:59;;;;;;;5.20;2.97;;;;;;;14.61;78.64;100776.06;5070094;28;20067;-87
2023/04/03 01:34:26;;;;;;;4.15;3.13;;;;;;;14.60;78.50;100779.50;5056931;28;20032;-88
2023/04/03 01:36:52;;;;;;;5.03;3.10;;;;;;;14.56;78.55;100773.28;5069533;28;20024;-87
2023/04/03 01:39:18;;;;;;;4.90;3.47;;;;;;;14.49;78.58;100755.44;5069475;28;20043;-88
2023/04/03 01:41:44;;;;;;;;;;;;;;;14.61;78.49;100765.56;5069946;28;20040;-87
2023/04/03 01:44:10;;;;;;;5.22;3.28;;;;;;;14.49;78.69;100750.16;5070576;28;20282;-88
2023/04/03 01:46:37;;;;;;;3.63;3.00;;;;;;;14.48;78.79;100750.09;5053157;28;20032;-87
2023/04/03 01:49:03;;;;;;;3.67;3.05;;;;;;;14.48;78.79;100748.41;5065388;28;20033;-88
2023/04/03 01:51:29;;;;;;;;;;;;;;;14.59;78.63;100764.59;5059015;28;20021;-86
2023/04/03 01:53:54;;;;;;;4.03;3.00;;;;;;;14.55;78.53;100767.91;5083698;28;19913;-87
2023/04/03 01:56:20;;;;;;;4.55;3.03;;;;;;;14.40;78.79;100739.31;5049529;28;20075;-87
2023/04/03 01:58:46;;;;;;;3.97;3.10;;;;;;;14.26;78.72;100730.91;5069055;28;20024;-87
2023/04/03 02:01:12;;;;;;;3.78;3.33;;;;;;;14.54;78.76;100777.53;5068635;28;20379;-87
2023/04/03 02:03:37;;;;;;;4.22;2.55;;;;;;;14.30;78.65;100739.81;5069195;28;20033;-88
2023/04/03 02:06:03;;;;;;;5.30;3.17;;;;;;;14.52;78.71;100776.59;5069368;28;20032;-87
2023/04/03 02:08:29;;;;;;;4.32;3.20;;;;;;;14.44;78.73;100776.28;5069274;28;20024;-87
2023/04/03 02:10:54;;;;;;;3.72;3.00;;;;;;;14.18;78.78;100725.38;5069584;28;20024;-87
2023/04/03 02:13:20;;;;;;;3.42;2.95;;;;;;;14.36;78.71;100755.81;5069184;28;20028;-87
2023/04/03 02:15:47;;;;;;;3.20;2.85;;;;;;;14.18;78.69;100722.75;5069670;28;20405;-88
2023/04/03 02:18:13;;;;;;;4.60;3.30;;;;;;;14.50;78.69;100777.34;5069078;28;20116;-88
2023/04/03 02:20:39;;;;;;;4.88;2.97;;;;;;;14.48;78.71;100771.13;5070862;28;20108;-88
2023/04/03 02:23:05;;;;;;;6.35;3.20;;;;;;;14.14;78.79;100722.53;5069323;28;20478;-87
2023/04/03 02:25:31;;;;;;;3.58;3.03;;;;;;;14.10;78.92;100708.44;5057873;28;20409;-88
2023/04/03 02:27:57;;;;;;;4.63;2.88;;;;;;;14.25;78.63;100729.13;5085932;28;20028;-88
2023/04/03 02:30:22;;;;;;;5.07;2.97;;;;;;;14.13;78.52;100707.66;5077131;28;20067;-87
2023/04/03 02:32:48;;;;;;;4.53;3.05;;;;;;;14.17;78.73;100714.81;5072850;28;20021;-87
2023/04/03 02:35:13;;;;;;;3.20;2.90;;;;;;;14.01;78.64;100690.59;5072719;28;20040;-87
2023/04/03 02:37:39;;;;;;;4.47;2.75;;;;;;;14.31;78.63;100745.13;5072920;28;20070;-87
2023/04/03 02:40:05;;;;;;;4.82;2.78;;;;;;;14.25;78.89;100737.00;5073619;28;20052;-87
2023/04/03 02:42:31;;;;;;;2.88;2.60;;;;;;;14.21;78.81;100736.00;5072828;28;20501;-88
2023/04/03 02:44:57;;;;;;;4.65;2.97;;;;;;;14.44;78.86;100780.66;5073023;28;20029;-87
2023/04/03 02:47:22;;;;;;;6.13;3.10;;;;;;;14.12;78.55;100729.47;5074216;28;20469;-86
2023/04/03 02:49:48;;;;;;;3.10;2.80;;;;;;;14.11;78.96;100736.47;5073698;28;20533;-87
2023/04/03 02:52:14;;;;;;;4.30;2.97;;;;;;;14.31;78.79;100770.47;5074346;28;20413;-88
2023/04/03 02:54:40;;;;;;;11.80;2.95;;;;;;;14.43;79.10;100794.59;5072993;28;20062;-87
2023/04/03 02:57:08;;;;;;;3.30;2.90;;;;;;;14.33;78.74;100777.59;5073463;28;20108;-87
2023/04/03 02:59:40;;;;;;;3.35;2.70;;;;;;;14.42;79.06;100803.34;5072850;28;20035;-87
2023/04/03 03:02:10;;;;;;;3.03;2.70;;;;;;;14.17;78.79;100756.81;5068762;28;20032;-87
2023/04/03 03:04:36;;;;;;;3.15;2.80;;;;;;;14.42;78.74;100812.09;5072561;28;20039;-87
2023/04/03 03:07:02;;;;;;;;;;;;;;;14.43;78.79;100811.28;5073373;28;20029;-88
2023/04/03 03:09:29;;;;;;;3.30;2.65;;;;;;;14.39;78.37;100813.72;5072413;28;20317;-87
2023/04/03 03:11:55;;;;;;;3.00;2.70;;;;;;;14.10;78.58;100774.06;5061059;28;20455;-88
2023/04/03 03:14:21;;;;;;;3.25;2.80;;;;;;;14.17;78.42;100775.22;5069949;28;20476;-87
2023/04/03 03:16:46;;;;;;;3.92;2.60;;;;;;;14.07;78.53;100749.41;5072443;28;20032;-88
2023/04/03 03:19:12;;;;;;;3.22;2.92;;;;;;;14.38;78.84;100809.31;5072082;28;20032;-87
2023/04/03 03:21:37;;;;;;;3.40;2.78;;;;;;;14.16;78.73;100776.03;5073411;28;20032;-86
2023/04/03 03:24:03;;;;;;;2.67;2.45;;;;;;;13.93;78.70;100733.13;5072008;28;20036;-87
2023/04/03 03:26:29;;;;;;;3.80;2.58;;;;;;;14.06;78.74;100766.91;5072059;28;20032;-87
2023/04/03 03:28:54;;;;;;;2.63;2.42;;;;;;;14.37;78.75;100816.31;5073300;28;20409;-87
2023/04/03 03:31:20;;;;;;;3.17;2.70;;;;;;;13.99;78.73;100763.16;5072139;28;20081;-87
2023/04/03 03:33:46;;;;;;;3.20;2.75;;;;;;;14.35;78.46;100822.31;5073488;28;20456;-87
2023/04/03 03:36:11;;;;;;;3.30;2.65;;;;;;;14.05;78.46;100786.09;5072167;28;20820;-87
2023/04/03 03:38:37;;;;;;;4.15;2.40;;;;;;;14.11;78.83;100788.97;5071491;28;20060;-87
2023/04/03 03:41:03;;;;;;;2.85;2.65;;;;;;;14.09;78.53;100787.13;5070453;28;20123;-87
2023/04/03 03:43:28;;;;;;;3.58;2.53;;;;;;;13.82;78.66;100759.84;5072002;28;20056;-87
2023/04/03 03:45:54;;;;;;;6.18;3.03;;;;;;;14.30;79.02;100844.88;5067975;28;20528;-87
2023/04/03 03:48:20;;;;;;;4.68;2.58;;;;;;;14.26;78.83;100828.09;5063887;28;20028;-87
2023/04/03 03:50:46;;;;;;;3.00;2.67;;;;;;;13.88;78.95;100761.78;5067516;28;20028;-87
2023/04/03 03:53:12;;;;;;;3.13;2.83;;;;;;;14.19;78.82;100816.44;5060601;28;20043;-87
2023/04/03 03:55:38;;;;;;;3.35;2.60;;;;;;;14.17;78.73;100819.84;5071609;28;20107;-87
2023/04/03 03:58:03;;;;;;;4.47;2.50;;;;;;;14.28;79.39;100831.69;5072812;28;20469;-87
2023/04/03 04:00:30;;;;;;;4.25;2.75;;;;;;;14.30;78.93;100835.25;5072542;28;20032;-86
2023/04/03 04:02:56;;;;;;;2.90;2.35;;;;;;;14.25;79.01;100832.47;5068925;28;20033;-87
2023/04/03 04:05:21;;;;;;;2.50;2.30;;;;;;;14.23;78.96;100831.50;5071210;28;20657;-87
2023/04/03 04:07:47;;;;;;;2.78;2.53;;;;;;;14.21;79.17;100820.03;5071711;28;20041;-86
2023/04/03 04:10:14;;;;;;;3.53;2.80;;;;;;;14.22;79.20;100831.44;5064725;28;20059;-88
2023/04/03 04:12:39;;;;;;;6.25;2.97;;;;;;;13.88;78.92;100776.66;5065141;28;20157;-88
2023/04/03 04:15:05;;;;;;;6.72;2.83;;;;;;;14.04;78.73;100803.59;5070795;28;20498;-87
2023/04/03 04:17:32;;;;;;;;;;;;;;;14.25;78.89;100845.59;5070769;28;20033;-87
2023/04/03 04:19:58;;;;;;;4.03;2.33;;;;;;;14.19;79.32;100837.47;5058678;28;19916;-87
2023/04/03 04:22:24;;;;;;;3.20;2.53;;;;;;;14.10;79.58;100820.47;5056782;28;20036;-87
2023/04/03 04:24:50;;;;;;;3.28;2.50;;;;;;;14.10;78.84;100817.84;5058986;28;20025;-87
2023/04/03 04:27:15;;;;;;;3.30;2.28;;;;;;;14.08;79.07;100825.63;5054338;28;20032;-87
2023/04/03 04:29:41;;;;;;;3.00;2.70;;;;;;;13.91;79.01;100797.81;5071225;28;20048;-88
2023/04/03 04:32:07;;;;;;;4.43;2.88;;;;;;;14.12;79.08;100835.44;5071684;28;20043;-88
2023/04/03 04:34:33;;;;;;;4.40;3.10;;;;;;;14.12;78.99;100834.50;5053489;28;20028;-87
2023/04/03 04:36:58;;;;;;;3.53;2.83;;;;;;;13.80;79.00;100778.97;5066758;28;20036;-87
2023/04/03 04:39:24;;;;;;;4.13;3.20;;;;;;;13.81;79.11;100789.53;5070529;28;20574;-86
2023/04/03 04:41:50;;;;;;;5.10;3.72;;;;;;;13.89;78.88;100794.22;5070944;28;20081;-88
2023/04/03 04:44:15;;;;;;;5.22;3.70;;;;;;;14.00;78.89;100811.28;5069632;28;20107;-85
2023/04/03 04:46:41;;;;;;;5.50;3.40;;;;;;;14.11;79.03;100845.88;5071131;28;20112;-87
2023/04/03 04:49:07;;;;;;;4.15;3.03;;;;;;;13.88;79.06;100797.66;5070271;28;20043;-88
2023/04/03 04:51:33;;;;;;;3.55;2.85;;;;;;;14.16;78.82;100849.56;5071389;28;20028;-88
2023/04/03 04:53:59;;;;;;;3.92;2.90;;;;;;;13.98;79.25;100813.84;5068288;28;20036;-88
2023/04/03 04:56:26;;;;;;;5.03;2.83;;;;;;;13.90;78.90;100796.88;5070082;28;20039;-85
2023/04/03 04:58:51;;;;;;;4.68;2.83;;;;;;;13.79;78.92;100785.06;5070259;28;20020;-86
2023/04/03 05:01:18;;;;;;;5.22;2.90;;;;;;;13.99;79.06;100813.03;5070705;28;20036;-88
2023/04/03 05:03:44;;;;;;;4.35;2.63;;;;;;;13.69;78.95;100768.03;5071165;28;20104;-88
2023/04/03 05:06:09;;;;;;;5.47;2.63;;;;;;;14.15;79.25;100848.66;5065408;28;20115;-86
2023/04/03 05:08:35;;;;;;;3.88;2.70;;;;;;;13.69;78.96;100768.03;5070094;28;20109;-87
2023/04/03 05:11:01;;;;;;;4.47;2.88;;;;;;;13.93;79.43;100820.66;5064644;28;20115;-87
2023/04/03 05:13:26;;;;;;;3.40;3.10;;;;;;;13.97;79.36;100826.91;5070516;28;20519;-86
2023/04/03 05:15:53;;;;;;;4.53;2.72;;;;;;;14.16;79.44;100868.88;5071010;28;20046;-87
2023/04/03 05:18:19;;;;;;;5.90;3.20;;;;;;;13.79;78.93;100806.06;5047435;28;20063;-86
2023/04/03 05:20:45;;;;;;;7.20;3.20;;;;;;;14.04;78.95;100847.34;5060653;28;20048;-85
2023/04/03 05:23:12;;;;;;;4.18;3.00;;;;;;;14.10;79.10;100862.47;5070668;28;20170;-86
2023/04/03 05:25:38;;;;;;;3.60;2.70;;;;;;;14.09;79.06;100869.44;5068883;28;20032;-87
2023/04/03 05:28:04;;;;;;;4.00;3.00;;;;;;;14.12;79.68;100866.03;5048487;28;20036;-86
2023/04/03 05:30:30;;;;;;;4.50;2.75;;;;;;;13.80;79.37;100811.38;5078358;28;20418;-87
2023/04/03 05:32:56;;;;;;;2.90;2.53;;;;;;;13.87;79.14;100824.75;5062464;28;20032;-88
2023/04/03 05:35:21;;;;;;;2.90;2.60;;;;;;;13.70;78.98;100801.31;5063205;28;20045;-87
2023/04/03 05:37:48;;;;;;;4.43;3.00;;;;;;;14.09;79.20;100873.78;5065733;28;20441;-88
2023/04/03 05:40:13;;;;;;;3.08;2.35;;;;;;;13.83;79.39;100839.47;5062741;28;20523;-87
2023/04/03 05:42:39;;;;;;;4.25;2.50;;;;;;;13.99;79.00;100875.13;5061978;28;20028;-85
2023/04/03 05:45:05;;;;;;;3.92;2.55;;;;;;;13.81;79.24;100847.28;5069381;28;20036;-87
2023/04/03 05:47:31;;;;;;;3.47;2.85;;;;;;;13.97;79.36;100874.16;5052457;28;20564;-87
2023/04/03 05:49:56;;;;;;;5.22;2.85;;;;;;;14.15;78.93;100914.31;5067904;28;20104;-87
2023/04/03 05:52:30;;;;;;;4.10;2.72;;;;;;;13.91;79.10;100876.56;5069307;28;20032;-88
2023/04/03 05:54:56;;;;;;;4.80;3.00;;;;;;;13.88;79.46;100885.19;5066027;28;20480;-87
2023/04/03 05:57:22;;;;;;;6.25;3.08;;;;;;;14.13;79.45;100931.75;5056097;28;20032;-88
2023/04/03 05:59:48;;;;;;;3.05;2.65;;;;;;;13.96;79.27;100911.75;5070393;28;20054;-87
2023/04/03 06:02:19;;;;;;;4.68;2.45;;;;;;;14.14;79.32;100928.31;5070220;28;20405;-87
2023/04/03 06:04:45;;;;;;;5.00;2.72;;;;;;;13.92;79.16;100905.47;5068591;28;20103;-86
2023/04/03 06:07:17;;;;;;;3.67;3.05;;;;;;;14.02;79.44;100935.66;5070474;28;20103;-86
2023/04/03 06:09:43;;;;;;;5.43;2.80;;;;;;;14.11;79.49;100953.53;5069119;28;20581;-86
2023/04/03 06:12:09;;;;;;;4.10;2.63;;;;;;;13.99;79.31;100936.44;5051695;28;20119;-86
2023/04/03 06:14:35;;;;;;;3.10;2.67;;;;;;;13.93;79.53;100920.41;5069188;28;20041;-85
2023/04/03 06:17:01;;;;;;;3.97;2.72;;;;;;;14.09;79.58;100935.06;5070222;28;20406;-87
2023/04/03 06:19:27;;;;;;;2.72;2.22;;;;;;;13.91;79.55;100911.56;5069158;28;20036;-87
2023/04/03 06:21:53;;;;;;;2.92;2.60;;;;;;;13.90;79.60;100903.63;5069248;28;20172;-87
2023/04/03 06:24:21;;;;;;;3.00;2.70;;;;;;;13.84;79.71;100899.00;5070523;28;20478;-87
2023/04/03 06:26:47;;;;;;;3.75;2.75;;;;;;;13.82;79.57;100892.78;5068774;28;20034;-86
2023/04/03 06:29:13;;;;;;;4.55;2.80;;;;;;;13.97;79.77;100924.03;5070532;28;20108;-88
2023/04/03 06:31:39;;;;;;;5.10;2.90;;;;;;;13.79;79.67;100904.06;5069054;28;20409;-87
2023/04/03 06:34:06;;;;;;;;;;;;;;;14.08;79.63;100943.81;5051533;28;20028;-86
2023/04/03 06:36:31;;;;;;;2.72;2.42;;;;;;;13.95;79.60;100930.97;5068014;28;20396;-86
2023/04/03 06:38:57;;;;;;;4.00;2.60;;;;;;;13.91;79.70;100929.94;5067268;28;20044;-86
2023/04/03 06:41:23;;;;;;;2.90;2.70;;;;;;;14.01;79.77;100950.53;5068687;28;20028;-85
2023/04/03 06:43:48;;;;;;;3.13;2.40;;;;;;;13.62;79.56;100886.69;5067913;28;20466;-86
2023/04/03 06:46:19;;;;;;;2.88;2.50;;;;;;;13.61;79.81;100893.69;5069174;28;20557;-86
2023/04/03 06:48:45;;;;;;;2.80;2.55;;;;;;;13.79;79.80;100916.28;5050892;28;20508;-86
2023/04/03 06:51:19;;;;;;;4.63;2.63;;;;;;;14.10;79.47;100963.16;5068828;28;20035;-86
2023/04/03 06:53:45;;;;;;;3.40;2.72;;;;;;;13.77;79.46;100899.59;5067746;28;20036;-86
2023/04/03 06:56:11;;;;;;;;;;;;;;;14.12;79.41;100956.22;5068562;28;20032;-86
2023/04/03 06:58:37;;;;;;;4.90;2.67;;;;;;;13.91;79.30;100927.31;5069928;28;19912;-86
2023/04/03 07:01:02;;;;;;;3.42;2.60;;;;;;;13.78;79.00;100907.53;5047133;28;20072;-86
2023/04/03 07:03:28;;;;;;;2.83;2.40;;;;;;;13.90;79.52;100930.75;5060431;28;20037;-87
2023/04/03 07:05:53;;;;;;;2.53;2.30;;;;;;;14.04;79.28;100957.63;5068915;28;20028;-85
2023/04/03 07:08:19;;;;;;;2.42;2.22;;;;;;;14.00;79.37;100939.94;5067684;28;20115;-86
2023/04/03 07:10:45;;;;;;;2.40;2.20;;;;;;;14.01;79.31;100933.84;5070278;28;20024;-86
2023/04/03 07:13:10;;;;;;;3.35;2.67;;;;;;;13.81;79.18;100914.63;5069959;28;20039;-86
2023/04/03 07:15:36;;;;;;;2.67;2.40;;;;;;;14.01;79.35;100947.91;5071519;28;20047;-86
2023/04/03 07:18:02;;;;;;;3.00;2.67;;;;;;;13.84;79.30;100914.75;5075002;28;20036;-86
2023/04/03 07:20:28;;;;;;;3.63;2.60;;;;;;;13.73;79.43;100895.03;5072247;28;20577;-86
2023/04/03 07:22:53;;;;;;;2.92;2.40;;;;;;;13.72;79.30;100909.88;5072043;28;20028;-87
2023/04/03 07:25:22;;;;;;;2.58;2.20;;;;;;;13.97;78.99;100961.72;5073368;28;20490;-86
2023/04/03 07:27:48;;;;;;;2.58;2.38;;;;;;;13.83;78.96;100940.13;5071508;28;20511;-86
2023/04/03 07:30:15;;;;;;;3.17;2.58;;;;;;;13.68;79.04;100910.59;5059785;28;20029;-87
2023/04/03 07:32:40;;;;;;;3.25;2.50;;;;;;;13.74;78.85;100923.97;5070980;28;20100;-86
2023/04/03 07:35:06;;;;;;;2.85;2.30;;;;;;;14.02;78.85;100969.78;5071793;28;20131;-87
2023/04/03 07:37:32;;;;;;;2.63;2.35;;;;;;;13.77;79.24;100928.44;5072870;28;20025;-87
2023/04/03 07:39:58;;;;;;;3.38;2.25;;;;;;;13.87;78.92;100945.50;5072984;28;20056;-86
2023/04/03 07:42:27;;;;;;;2.60;2.40;;;;;;;14.11;79.26;100996.44;5071795;28;20066;-86
2023/04/03 07:44:53;;;;;;;2.45;2.20;;;;;;;14.03;79.26;100983.00;5062064;28;20078;-87
2023/04/03 07:47:20;;;;;;;2.55;2.28;;;;;;;14.12;79.10;100999.94;5068317;28;20062;-86
2023/04/03 07:49:46;;;;;;;3.17;2.50;;;;;;;13.97;79.36;100976.56;5070398;28;20163;-86
2023/04/03 07:52:13;;;;;;;2.63;2.38;;;;;;;13.80;79.58;100955.75;5069340;28;20521;-86
2023/04/03 07:54:38;;;;;;;2.80;2.50;;;;;;;14.00;79.30;100985.47;5072612;28;20062;-86
2023/04/03 07:57:04;;;;;;;2.83;2.50;;;;;;;13.99;79.07;100988.94;5072789;28;20036;-87
2023/04/03 07:59:30;;;;;;;3.60;2.72;;;;;;;14.06;78.89;100997.97;5060405;28;20029;-87
2023/04/03 08:01:56;;;;;;;2.70;2.25;;;;;;;13.97;79.30;100979.19;5071128;28;20538;-86
2023/04/03 08:04:22;;;;;;;3.03;2.25;;;;;;;14.10;79.02;101006.91;5072553;28;20067;-87
2023/04/03 08:06:47;;;;;;;2.88;2.40;;;;;;;13.97;79.93;100989.69;5054717;28;20056;-87
2023/04/03 08:09:15;;;;;;;3.25;2.70;;;;;;;14.13;79.38;101007.91;5078360;28;20051;-87
2023/04/03 08:11:41;;;;;;;2.83;2.40;;;;;;;14.10;79.28;101005.16;5089032;28;20020;-89
2023/04/03 08:14:06;;;;;;;3.15;2.60;;;;;;;14.14;79.27;101004.47;5081150;28;20409;-86
2023/04/03 08:16:32;;;;;;;2.63;2.22;;;;;;;13.93;79.06;100983.44;5071986;28;20028;-87
2023/04/03 08:18:59;;;;;;;3.47;2.55;;;;;;;14.00;79.00;100985.47;5071864;28;20028;-86
2023/04/03 08:21:25;;;;;;;;;;;;;;;14.14;79.47;101014.06;5071485;28;20512;-87
2023/04/03 08:23:51;;;;;;;4.35;2.60;;;;;;;13.90;78.88;100972.78;5069713;28;19963;-87
2023/04/03 08:26:20;;;;;;;2.85;2.53;;;;;;;14.17;78.88;101011.56;5060221;28;20065;-86
2023/04/03 08:28:46;;;;;;;2.80;2.47;;;;;;;13.93;79.10;100969.41;5066699;28;20025;-86
2023/04/03 08:31:15;;;;;;;2.53;2.33;;;;;;;13.78;79.23;100948.63;5047536;28;20055;-86
2023/04/03 08:33:41;;;;;;;3.03;2.50;;;;;;;13.89;79.37;100972.72;5054880;28;20055;-86
2023/04/03 08:36:14;;;;;;;3.40;2.88;;;;;;;14.17;79.20;101008.94;5071464;28;20032;-86
2023/04/03 08:38:40;;;;;;;2.95;2.65;;;;;;;13.85;79.39;100948.06;5070741;28;20110;-86
2023/04/03 08:41:06;;;;;;;3.08;2.47;;;;;;;14.15;79.67;101002.72;5070354;28;20032;-86
2023/04/03 08:43:56;;;;;;;2.67;2.47;;;;;;;14.04;79.56;100986.50;5071866;28;20058;-86
2023/04/03 08:46:26;;;;;;;2.60;2.40;;;;;;;13.74;79.46;100931.84;5063206;28;20091;-87
2023/04/03 08:48:51;;;;;;;3.05;2.40;;;;;;;14.10;79.59;101001.66;5070405;28;20043;-86
2023/04/03 08:51:20;;;;;;;3.60;2.58;;;;;;;13.70;80.06;100926.41;5070519;28;20029;-86
2023/04/03 08:53:56;;;;;;;3.20;2.80;;;;;;;13.62;80.21;100895.47;5071573;28;20020;-86
2023/04/03 08:56:23;;;;;;;5.13;2.80;;;;;;;13.73;80.19;100921.28;5053725;28;20031;-86
2023/04/03 08:58:52;;;;;;;3.05;2.70;;;;;;;13.75;80.07;100923.13;5070086;28;20028;-86
2023/04/03 09:01:26;;;;;;;2.53;2.33;;;;;;;14.04;80.40;100982.16;5053645;28;20473;-86
2023/04/03 09:03:52;;;;;;;3.50;2.88;;;;;;;13.84;80.66;100938.38;5057842;28;20033;-86
2023/04/03 09:06:24;;;;;;;3.00;2.70;;;;;;;13.91;80.87;100966.72;5069912;28;20409;-86
2023/04/03 09:09:08;;;;;;;3.53;2.70;;;;;;;13.82;80.87;100956.72;5070084;28;20073;-86
2023/04/03 09:11:47;;;;;;;3.13;2.47;;;;;;;13.94;81.07;100982.56;5071047;28;20013;-86
2023/04/03 09:14:39;;;;;;;3.90;3.15;;;;;;;14.10;80.93;101004.28;5071222;28;20029;-86
2023/04/03 09:17:13;;;;;;;3.50;2.85;;;;;;;14.10;80.74;100989.41;5060548;28;20426;-86
2023/04/03 09:19:47;;;;;;;5.78;2.67;;;;;;;13.95;80.86;100960.75;5070920;28;20038;-86
2023/04/03 09:22:22;;;;;;;4.30;2.90;;;;;;;14.13;80.69;100986.91;5071095;28;20028;-87
2023/04/03 09:24:57;;;;;;;3.22;2.72;;;;;;;14.10;80.84;100976.28;5057648;28;20420;-87
2023/04/03 09:27:23;;;;;;;4.13;2.65;;;;;;;14.11;80.80;100977.16;5069798;28;20482;-87
2023/04/03 09:29:50;;;;;;;3.10;2.80;;;;;;;14.00;80.88;100967.09;5071206;28;20069;-87
2023/04/03 09:32:21;;;;;;;3.10;2.72;;;;;;;14.13;80.66;100979.03;5069449;28;20036;-86
2023/04/03 09:34:47;;;;;;;3.78;3.00;;;;;;;14.04;80.55;100957.63;5071153;28;20107;-87
2023/04/03 09:37:38;;;;;;;3.58;2.88;;;;;;;14.15;80.83;100973.84;5069455;28;20047;-87
2023/04/03 09:40:04;;;;;;;4.20;2.70;;;;;;;14.09;80.89;100963.06;5049528;28;20049;-86
2023/04/03 09:42:33;;;;;;;3.38;2.80;;;;;;;14.12;80.76;100969.38;5083052;28;20035;-87
2023/04/03 09:45:04;;;;;;;3.30;2.80;;;;;;;14.14;80.64;100977.28;5050057;28;20021;-87
2023/04/03 09:47:35;;;;;;;4.57;3.10;;;;;;;14.04;80.69;100962.88;5069679;28;20032;-87
2023/04/03 09:50:18;;;;;;;4.38;2.80;;;;;;;14.16;80.65;100973.91;5071089;28;20047;-86
2023/04/03 09:52:48;;;;;;;3.20;2.90;;;;;;;14.17;80.64;100972.19;5059391;28;20028;-87
2023/04/03 09:55:15;;;;;;;5.75;3.42;;;;;;;14.11;80.54;100969.28;5067254;28;20085;-87
2023/04/03 09:57:41;;;;;;;5.13;3.40;;;;;;;13.94;80.57;100937.06;5060309;28;20087;-86
2023/04/03 10:00:35;;;;;;;3.67;3.28;;;;;;;14.19;80.43;100968.78;5069127;28;20493;-87
2023/04/03 10:03:02;;;;;;;3.55;2.90;;;;;;;14.10;80.60;100949.13;5054956;28;20039;-86
2023/04/03 10:05:39;;;;;;;4.10;2.92;;;;;;;14.20;80.37;100972.28;5058205;28;20085;-85
2023/04/03 10:08:15;;;;;;;4.05;2.95;;;;;;;14.19;80.50;100970.50;5070265;28;20025;-86
2023/04/03 10:10:43;;;;;;;3.88;3.10;;;;;;;14.04;80.61;100941.88;5049760;28;20070;-86
2023/04/03 10:13:14;;;;;;;3.47;3.00;;;;;;;14.22;80.35;100966.31;5064285;28;20088;-87
2023/04/03 10:15:44;;;;;;;3.92;3.17;;;;;;;14.22;80.30;100960.13;5069318;28;20353;-87
2023/04/03 10:18:22;;;;;;;3.58;2.97;;;;;;;14.22;80.32;100961.03;5069132;28;20036;-85
2023/04/03 10:20:49;;;;;;;3.47;3.17;;;;;;;13.98;80.65;100918.88;5070478;28;20130;-85
2023/04/03 10:23:21;;;;;;;3.30;3.00;;;;;;;14.02;80.14;100912.03;5069252;28;20405;-86
2023/04/03 10:26:17;;;;;;;3.22;2.90;;;;;;;14.14;80.52;100945.78;5052449;28;20410;-86
2023/04/03 10:29:03;;;;;;;3.47;3.00;;;;;;;14.26;80.12;100954.16;5060492;28;20523;-85
2023/04/03 10:31:40;;;;;;;3.33;3.03;;;;;;;14.24;80.18;100954.13;5052481;28;20062;-86
2023/04/03 10:34:28;;;;;;;3.80;3.20;;;;;;;14.17;80.25;100952.06;5068992;28;20107;-86
2023/04/03 10:37:18;;;;;;;3.55;3.10;;;;;;;14.13;80.33;100934.38;5069288;28;20047;-86
2023/04/03 10:39:50;;;;;;;3.92;3.30;;;;;;;13.91;80.30;100897.56;5073006;28;20045;-86
2023/04/03 10:42:40;;;;;;;4.40;3.00;;;;;;;14.24;80.39;100948.88;5074074;28;20032;-86
2023/04/03 10:45:08;;;;;;;4.28;3.20;;;;;;;14.29;80.19;100940.25;5070207;28;20051;-86
2023/04/03 10:47:40;;;;;;;4.28;3.00;;;;;;;14.27;80.17;100942.84;5068452;28;20036;-86
2023/04/03 10:50:26;;;;;;;4.80;3.53;;;;;;;14.11;80.29;100912.41;5071086;28;20028;-86
2023/04/03 10:53:04;;;;;;;3.50;3.20;;;;;;;14.25;80.35;100934.91;5072418;28;20111;-86
2023/04/03 10:55:39;;;;;;;3.10;2.83;;;;;;;14.27;80.39;100945.47;5057742;28;20029;-86
2023/04/03 10:58:05;;;;;;;3.70;3.10;;;;;;;14.24;80.35;100948.88;5072060;28;20467;-86
2023/04/03 11:00:44;;;;;;;4.10;3.10;;;;;;;14.23;80.57;100944.44;5051099;28;20025;-86
2023/04/03 11:03:16;;;;;;;4.20;3.30;;;;;;;14.07;80.68;100917.47;5082094;28;20063;-86
2023/04/03 11:05:45;;;;;;;4.00;3.20;;;;;;;14.28;80.35;100952.50;5071873;28;20028;-87
2023/04/03 11:08:27;;;;;;;3.13;2.83;;;;;;;14.17;80.11;100920.53;5072318;28;20021;-86
2023/04/03 11:10:56;;;;;;;3.45;2.90;;;;;;;14.32;80.02;100936.03;5072399;28;20028;-86
2023/04/03 11:13:34;;;;;;;4.35;3.13;;;;;;;14.29;79.83;100937.63;5071692;28;20060;-87
2023/04/03 11:16:00;;;;;;;4.75;3.10;;;;;;;14.32;80.13;100949.19;5083697;28;20089;-86
2023/04/03 11:18:36;;;;;;;3.40;3.10;;;;;;;14.21;80.03;100925.09;5072426;28;20029;-86
2023/04/03 11:21:12;;;;;;;6.53;3.42;;;;;;;14.17;80.31;100931.06;5072045;28;20406;-86
2023/04/03 11:23:40;;;;;;;3.78;2.80;;;;;;;13.96;80.51;100899.53;5073587;28;20063;-85
2023/04/03 11:26:28;;;;;;;3.50;3.00;;;;;;;14.31;80.15;100947.41;5071916;28;20082;-86
2023/04/03 11:28:59;;;;;;;4.38;3.60;;;;;;;14.27;80.17;100934.97;5071848;28;20024;-86
2023/04/03 11:31:36;;;;;;;4.60;3.20;;;;;;;13.92;80.32;100871.34;5062896;28;20023;-86